Search for airport 
image banner adimage banner ad
image banner ad

SVCG - Carbones Del Guasare

Located in Zulia, Venezuela

ICAO - SVCG, IATA - CUV

Data provided by Airmate  

General information

Coordinates: N11°0'29" W72°16'26"
Elevation is 99 feet MSL.
 
View others Airports in Zulia

Operational data

Open for public use
Current time UTC:
Current local time:
Weather at : SVMC - Maracaibo / La Chinita Intl ( 78 km )
METAR: SVMC 290202Z AUTO 01007KT NCD 29/25 Q1008
TAF: TAF SVMC 282200Z 2900/3000 14005KT 9999 SCT013 TX34/2919Z TN24/2907Z TEMPO 2900/2904 00000KT 8000 DZ OVC013 FM290500 00000KT 9000 DZ BKN013
View NOTAMs / SUP AIP / TFR affecting this airport [VIEW]
Communications frequencies: [VIEW]

Runways:

RWY identifierQFULength (ft)Width (ft)SurfaceLDA (ft)
1093°345070ASP
28273°345070ASP

Airport contact information

Address: Zulia Venezuela

Satellite view of SVCG